createdAt,value
2018-04-11T00:00:03.135Z,15.70
2018-04-11T00:02:06.119Z,15.70
2018-04-11T00:04:09.918Z,15.80
2018-04-11T00:06:13.640Z,15.70
2018-04-11T00:08:16.590Z,15.70
2018-04-11T00:10:20.366Z,15.50
2018-04-11T00:12:23.387Z,15.50
2018-04-11T00:14:27.311Z,15.60
2018-04-11T00:16:30.258Z,15.60
2018-04-11T00:18:33.949Z,15.60
2018-04-11T00:20:37.695Z,15.60
2018-04-11T00:22:40.621Z,15.60
2018-04-11T00:24:44.334Z,15.50
2018-04-11T00:26:47.293Z,15.50
2018-04-11T00:28:50.207Z,15.50
2018-04-11T00:30:53.913Z,15.50
2018-04-11T00:32:57.637Z,15.50
2018-04-11T00:35:00.561Z,15.50
2018-04-11T00:37:03.522Z,15.50
2018-04-11T00:39:06.446Z,15.40
2018-04-11T00:41:09.370Z,15.40
2018-04-11T00:43:13.168Z,15.30
2018-04-11T00:45:16.102Z,15.30
2018-04-11T00:47:19.851Z,15.00
2018-04-11T00:49:22.794Z,15.00
2018-04-11T00:51:26.617Z,14.90
2018-04-11T00:53:30.369Z,14.80
2018-04-11T00:55:33.445Z,14.80
2018-04-11T00:57:36.414Z,14.80
2018-04-11T00:59:39.342Z,14.70
2018-04-11T01:01:43.078Z,14.70
2018-04-11T01:03:46.018Z,14.70
2018-04-11T01:05:48.959Z,14.70
2018-04-11T01:07:51.934Z,14.60
2018-04-11T01:09:54.885Z,14.70
2018-04-11T01:11:58.612Z,14.70
2018-04-11T01:14:01.558Z,14.70
2018-04-11T01:16:04.486Z,14.70
2018-04-11T01:18:07.440Z,14.60
2018-04-11T01:20:11.151Z,14.50
2018-04-11T01:22:14.228Z,14.50
2018-04-11T01:24:17.904Z,14.50
2018-04-11T01:26:21.580Z,14.40
2018-04-11T01:28:24.525Z,14.40
2018-04-11T01:30:27.435Z,14.40
2018-04-11T01:32:30.397Z,14.30
2018-04-11T01:34:33.452Z,14.30
2018-04-11T01:36:37.128Z,14.20
2018-04-11T01:38:40.954Z,14.20
2018-04-11T01:40:44.755Z,14.20
2018-04-11T01:42:48.460Z,14.20
2018-04-11T01:44:51.381Z,14.20
2018-04-11T01:46:54.319Z,14.20
2018-04-11T01:48:57.996Z,14.20
2018-04-11T01:51:01.699Z,14.20
2018-04-11T01:53:05.421Z,14.30
2018-04-11T01:55:09.100Z,14.30
2018-04-11T01:57:12.813Z,14.30
2018-04-11T01:59:16.504Z,14.30
2018-04-11T02:01:20.192Z,14.30
2018-04-11T02:03:23.226Z,14.30
2018-04-11T02:05:26.148Z,14.40
2018-04-11T02:07:29.117Z,14.40
2018-04-11T02:09:32.036Z,14.40
2018-04-11T02:11:36.467Z,14.30
2018-04-11T02:13:40.897Z,14.30
2018-04-11T02:15:43.832Z,14.40
2018-04-11T02:17:46.770Z,14.40
2018-04-11T02:19:49.714Z,14.30
2018-04-11T02:21:53.412Z,14.10
2018-04-11T02:23:57.096Z,14.20
2018-04-11T02:26:00.024Z,14.20
2018-04-11T02:28:02.953Z,14.20
2018-04-11T02:30:05.975Z,14.20
2018-04-11T02:32:09.778Z,14.20
2018-04-11T02:34:13.443Z,14.10
2018-04-11T02:36:16.376Z,14.10
2018-04-11T02:38:19.443Z,14.10
2018-04-11T02:40:23.246Z,14.10
2018-04-11T02:42:26.256Z,14.20
2018-04-11T02:44:29.168Z,14.20
2018-04-11T02:46:32.076Z,14.20
2018-04-11T02:48:35.768Z,14.40
2018-04-11T02:50:40.208Z,14.40
2018-04-11T02:52:43.906Z,14.50
2018-04-11T02:54:47.568Z,14.60
2018-04-11T02:56:50.594Z,14.60
2018-04-11T02:58:54.289Z,14.60
2018-04-11T03:00:57.965Z,14.70
2018-04-11T03:03:00.909Z,14.60
2018-04-11T03:05:03.816Z,14.70
2018-04-11T03:07:06.752Z,14.70
2018-04-11T03:09:09.668Z,14.80
2018-04-11T03:11:12.585Z,14.80
2018-04-11T03:13:16.298Z,14.90
2018-04-11T03:15:19.977Z,14.90
2018-04-11T03:17:22.900Z,14.90
2018-04-11T03:19:25.811Z,15.00
2018-04-11T03:21:28.714Z,15.00
2018-04-11T03:23:31.647Z,15.00
2018-04-11T03:25:35.526Z,15.00
2018-04-11T03:27:39.204Z,15.00
2018-04-11T03:29:42.907Z,15.10
2018-04-11T03:31:46.593Z,15.10
2018-04-11T03:33:49.520Z,15.10
2018-04-11T03:35:52.452Z,15.10
2018-04-11T03:37:55.395Z,15.10
2018-04-11T03:39:58.312Z,15.10
2018-04-11T03:42:01.261Z,15.10
2018-04-11T03:44:04.205Z,15.10
2018-04-11T03:46:07.876Z,15.10
2018-04-11T03:48:10.816Z,15.10
2018-04-11T03:50:13.730Z,15.10
2018-04-11T03:52:16.676Z,15.10
2018-04-11T03:54:19.595Z,15.10
2018-04-11T03:56:22.521Z,15.10
2018-04-11T03:58:25.460Z,15.10
2018-04-11T04:00:28.369Z,15.10
2018-04-11T04:02:31.295Z,15.10
2018-04-11T04:04:34.199Z,15.10
2018-04-11T04:06:37.236Z,15.00
2018-04-11T04:08:41.039Z,15.10
2018-04-11T04:10:44.708Z,15.10
2018-04-11T04:12:48.468Z,15.10
2018-04-11T04:15:04.220Z,15.10
2018-04-11T04:17:19.776Z,15.10
2018-04-11T04:19:35.294Z,15.10
2018-04-11T04:21:38.208Z,15.10
2018-04-11T04:23:41.150Z,15.00
2018-04-11T04:25:44.072Z,15.00
2018-04-11T04:27:46.980Z,15.00
2018-04-11T04:29:49.940Z,14.90
2018-04-11T04:31:52.846Z,14.90
2018-04-11T04:33:56.664Z,15.00
2018-04-11T04:35:59.628Z,15.00
2018-04-11T04:38:03.560Z,15.00
2018-04-11T04:40:07.353Z,15.10
2018-04-11T04:42:11.030Z,15.10
2018-04-11T04:44:14.744Z,15.10
2018-04-11T04:46:18.411Z,15.10
2018-04-11T04:48:21.392Z,15.10
2018-04-11T04:50:24.322Z,15.20
2018-04-11T04:52:27.996Z,15.20
2018-04-11T04:54:31.702Z,15.20
2018-04-11T04:56:35.386Z,15.20
2018-04-11T04:58:38.312Z,15.20
2018-04-11T05:00:41.227Z,15.20
2018-04-11T05:02:44.145Z,15.20
2018-04-11T05:04:47.861Z,15.20
2018-04-11T05:06:51.535Z,15.20
2018-04-11T05:08:55.365Z,15.20
2018-04-11T05:10:59.060Z,15.10
2018-04-11T05:13:02.732Z,15.10
2018-04-11T05:15:05.692Z,15.10
2018-04-11T05:17:08.599Z,15.00
2018-04-11T05:19:11.532Z,14.90
2018-04-11T05:21:14.460Z,14.90
2018-04-11T05:23:17.411Z,14.90
2018-04-11T05:25:21.141Z,14.80
2018-04-11T05:27:24.078Z,14.80
2018-04-11T05:29:27.016Z,14.70
2018-04-11T05:31:30.684Z,14.70
2018-04-11T05:33:33.625Z,14.70
2018-04-11T05:35:36.551Z,14.70
2018-04-11T05:37:39.582Z,14.70
2018-04-11T05:39:43.305Z,14.50
2018-04-11T05:41:46.224Z,14.50
2018-04-11T05:43:49.246Z,14.50
2018-04-11T05:45:52.916Z,14.50
2018-04-11T05:47:55.851Z,14.50
2018-04-11T05:49:58.786Z,14.50
2018-04-11T05:52:01.800Z,14.40
2018-04-11T05:54:05.594Z,14.40
2018-04-11T05:56:09.264Z,14.40
2018-04-11T05:58:12.205Z,14.30
2018-04-11T06:00:15.409Z,14.30
2018-04-11T06:02:18.344Z,14.20
2018-04-11T06:04:22.016Z,14.30
2018-04-11T06:06:25.222Z,14.30
2018-04-11T06:08:29.035Z,14.30
2018-04-11T06:10:32.708Z,14.40
2018-04-11T06:12:35.669Z,14.40
2018-04-11T06:14:38.577Z,14.50
2018-04-11T06:16:41.515Z,14.50
2018-04-11T06:18:44.517Z,14.50
2018-04-11T06:20:47.421Z,14.50
2018-04-11T06:22:51.148Z,14.60
2018-04-11T06:24:54.821Z,14.60
2018-04-11T06:26:58.543Z,14.60
2018-04-11T06:29:02.221Z,14.60
2018-04-11T06:31:06.047Z,14.60
2018-04-11T06:33:09.720Z,14.60
2018-04-11T06:35:13.405Z,14.70
2018-04-11T06:37:16.337Z,14.60
2018-04-11T06:39:19.252Z,14.70
2018-04-11T06:41:22.193Z,14.70
2018-04-11T06:43:25.112Z,14.60
2018-04-11T06:45:28.029Z,14.70
2018-04-11T06:47:30.956Z,14.60
2018-04-11T06:49:33.884Z,14.60
2018-04-11T06:51:38.433Z,14.60
2018-04-11T06:53:42.128Z,14.70
2018-04-11T06:55:46.097Z,14.60
2018-04-11T06:57:49.061Z,14.60
2018-04-11T06:59:51.967Z,14.60
2018-04-11T07:01:54.914Z,14.60
2018-04-11T07:03:57.943Z,14.60
2018-04-11T07:06:00.865Z,14.50
2018-04-11T07:08:03.796Z,14.50
2018-04-11T07:10:06.818Z,14.40
2018-04-11T07:12:11.860Z,14.20
2018-04-11T07:14:14.781Z,14.20
2018-04-11T07:16:17.697Z,14.20
2018-04-11T07:18:21.429Z,14.10
2018-04-11T07:20:24.352Z,14.10
2018-04-11T07:22:27.300Z,14.00
2018-04-11T07:24:30.212Z,14.00
2018-04-11T07:26:33.157Z,14.00
2018-04-11T07:28:36.068Z,14.10
2018-04-11T07:30:38.984Z,14.20
2018-04-11T07:32:41.915Z,14.30
2018-04-11T07:34:44.836Z,14.30
2018-04-11T07:36:47.878Z,14.30
2018-04-11T07:38:50.809Z,14.40
2018-04-11T07:40:53.736Z,14.40
2018-04-11T07:42:56.825Z,14.40
2018-04-11T07:44:59.720Z,14.30
2018-04-11T07:47:02.766Z,14.40
2018-04-11T07:49:06.437Z,14.40
2018-04-11T07:51:09.446Z,14.30
2018-04-11T07:53:13.248Z,14.50
2018-04-11T07:55:16.936Z,14.70
2018-04-11T07:57:20.647Z,14.70
2018-04-11T07:59:24.316Z,14.70
2018-04-11T08:01:27.258Z,14.70
2018-04-11T08:03:30.247Z,14.70
2018-04-11T08:05:33.157Z,14.80
2018-04-11T08:07:36.106Z,14.80
2018-04-11T08:09:39.013Z,14.90
2018-04-11T08:11:41.963Z,14.90
2018-04-11T08:13:44.878Z,15.00
2018-04-11T08:15:47.781Z,15.00
2018-04-11T08:17:50.991Z,15.00
2018-04-11T08:19:54.644Z,15.10
2018-04-11T08:21:58.368Z,15.20
2018-04-11T08:24:01.625Z,15.30
2018-04-11T08:26:04.523Z,15.30
2018-04-11T08:28:07.544Z,15.40
2018-04-11T08:30:11.363Z,15.50
2018-04-11T08:32:14.289Z,15.50
2018-04-11T08:34:17.223Z,15.50
2018-04-11T08:36:20.132Z,15.50
2018-04-11T08:38:23.052Z,15.60
2018-04-11T08:40:26.782Z,15.70
2018-04-11T08:42:29.692Z,15.60
2018-04-11T08:44:32.621Z,15.70
2018-04-11T08:46:35.737Z,15.70
2018-04-11T08:48:38.662Z,15.80
2018-04-11T08:50:41.585Z,15.70
2018-04-11T08:52:45.289Z,15.90
2018-04-11T08:54:49.003Z,15.90
2018-04-11T08:56:52.703Z,15.90
2018-04-11T08:58:55.628Z,15.90
2018-04-11T09:00:58.630Z,15.90
2018-04-11T09:03:01.552Z,16.00
2018-04-11T09:05:04.625Z,16.00
2018-04-11T09:07:08.324Z,16.10
2018-04-11T09:09:11.230Z,16.00
2018-04-11T09:11:14.282Z,16.10
2018-04-11T09:13:17.976Z,16.20
2018-04-11T09:15:21.663Z,16.20
2018-04-11T09:17:25.485Z,16.20
2018-04-11T09:19:29.209Z,16.20
2018-04-11T09:21:32.116Z,16.20
2018-04-11T09:23:35.148Z,16.30
2018-04-11T09:25:38.816Z,16.40
2018-04-11T09:27:41.753Z,16.40
2018-04-11T09:29:45.014Z,16.50
2018-04-11T09:31:48.754Z,16.60
2018-04-11T09:33:51.668Z,16.60
2018-04-11T09:35:54.567Z,16.60
2018-04-11T09:37:58.293Z,16.50
2018-04-11T09:40:01.738Z,16.50
2018-04-11T09:42:04.688Z,16.60
2018-04-11T09:44:07.606Z,16.70
2018-04-11T09:46:12.048Z,16.80
2018-04-11T09:48:15.743Z,16.80
2018-04-11T09:50:19.428Z,16.80
2018-04-11T09:52:23.260Z,16.90
2018-04-11T09:54:26.923Z,16.90
2018-04-11T09:56:29.934Z,16.90
2018-04-11T09:58:33.642Z,17.10
2018-04-11T10:00:37.316Z,17.10
2018-04-11T10:02:40.255Z,17.10
2018-04-11T10:04:43.160Z,17.20
2018-04-11T10:06:46.072Z,17.20
2018-04-11T10:08:49.785Z,17.30
2018-04-11T10:10:53.547Z,17.40
2018-04-11T10:12:56.574Z,17.40
2018-04-11T10:15:00.245Z,17.40
2018-04-11T10:17:03.165Z,17.40
2018-04-11T10:19:06.158Z,17.40
2018-04-11T10:21:09.910Z,17.40
2018-04-11T10:23:12.852Z,17.40
2018-04-11T10:25:15.760Z,17.40
2018-04-11T10:27:18.707Z,17.40
2018-04-11T10:29:21.612Z,17.40
2018-04-11T10:31:24.521Z,17.50
2018-04-11T10:33:27.457Z,17.50
2018-04-11T10:35:30.368Z,17.60
2018-04-11T10:37:33.390Z,17.70
2018-04-11T10:39:36.306Z,17.70
2018-04-11T10:41:39.229Z,17.80
2018-04-11T10:43:42.340Z,17.80
2018-04-11T10:45:46.017Z,17.90
2018-04-11T10:47:48.968Z,17.90
2018-04-11T10:49:51.885Z,18.00
2018-04-11T10:51:55.586Z,18.10
2018-04-11T10:53:58.533Z,18.10
2018-04-11T10:56:01.489Z,18.10
2018-04-11T10:58:04.449Z,18.10
2018-04-11T11:00:08.124Z,18.10
2018-04-11T11:02:11.131Z,18.10
2018-04-11T11:04:14.822Z,18.20
2018-04-11T11:06:18.504Z,18.10
2018-04-11T11:08:21.515Z,18.20
2018-04-11T11:10:25.188Z,18.20
2018-04-11T11:12:28.120Z,18.20
2018-04-11T11:14:31.179Z,18.20
2018-04-11T11:16:36.296Z,18.30
2018-04-11T11:18:39.208Z,18.30
2018-04-11T11:20:54.080Z,18.30
2018-04-11T11:22:56.993Z,18.30
2018-04-11T11:25:00.746Z,18.40
2018-04-11T11:27:03.676Z,18.30
2018-04-11T11:29:06.592Z,18.40
2018-04-11T11:31:10.293Z,18.40
2018-04-11T11:33:14.001Z,18.40
2018-04-11T11:35:17.803Z,18.50
2018-04-11T11:37:21.480Z,18.50
2018-04-11T11:39:25.157Z,18.50
2018-04-11T11:41:28.156Z,18.50
2018-04-11T11:43:31.169Z,18.60
2018-04-11T11:45:34.861Z,18.60
2018-04-11T11:47:38.535Z,18.70
2018-04-11T11:49:41.452Z,18.60
2018-04-11T11:51:45.173Z,18.70
2018-04-11T11:53:48.089Z,18.70
2018-04-11T11:55:51.117Z,18.70
2018-04-11T11:57:54.792Z,18.80
2018-04-11T11:59:58.480Z,18.80
2018-04-11T12:02:01.526Z,18.80
2018-04-11T12:04:04.432Z,18.90
2018-04-11T12:06:07.485Z,19.00
2018-04-11T12:08:10.388Z,19.00
2018-04-11T12:10:13.326Z,19.00
2018-04-11T12:12:16.252Z,19.10
2018-04-11T12:14:19.164Z,19.20
2018-04-11T12:16:23.624Z,19.30
2018-04-11T12:18:26.532Z,19.30
2018-04-11T12:20:29.470Z,19.40
2018-04-11T12:22:33.141Z,19.50
2018-04-11T12:24:37.556Z,19.50
2018-04-11T12:26:40.504Z,19.50
2018-04-11T12:28:43.407Z,19.60
2018-04-11T12:30:46.345Z,19.60
2018-04-11T12:32:49.285Z,19.70
2018-04-11T12:34:52.216Z,19.70
2018-04-11T12:36:55.157Z,19.80
2018-04-11T12:38:58.837Z,20.00
2018-04-11T12:41:01.860Z,19.90
2018-04-11T12:43:05.510Z,20.20
2018-04-11T12:45:08.447Z,20.10
2018-04-11T12:47:12.244Z,20.40
2018-04-11T12:49:17.416Z,20.50
2018-04-11T12:51:21.102Z,20.60
2018-04-11T12:53:24.011Z,20.60
2018-04-11T12:55:26.919Z,20.90
2018-04-11T12:57:30.631Z,21.60
2018-04-11T12:59:34.298Z,22.10
2018-04-11T13:01:37.253Z,22.00
2018-04-11T13:03:40.156Z,22.70
2018-04-11T13:05:43.092Z,23.30
2018-04-11T13:07:46.008Z,24.10
2018-04-11T13:09:48.915Z,24.80
2018-04-11T13:11:53.465Z,26.00
2018-04-11T13:13:56.381Z,26.00
2018-04-11T13:15:59.338Z,26.50
2018-04-11T13:18:02.269Z,26.60
2018-04-11T13:20:05.197Z,26.40
2018-04-11T13:22:08.891Z,25.60
2018-04-11T13:24:12.592Z,25.40
2018-04-11T13:26:16.277Z,25.20
2018-04-11T13:28:19.964Z,25.20
2018-04-11T13:30:22.900Z,25.20
2018-04-11T13:32:25.841Z,25.50
2018-04-11T13:34:29.520Z,25.50
2018-04-11T13:36:32.517Z,25.50
2018-04-11T13:38:35.420Z,25.50
2018-04-11T13:40:39.089Z,25.50
2018-04-11T13:42:42.017Z,25.50
2018-04-11T13:44:45.800Z,25.50
2018-04-11T13:46:49.483Z,25.50
2018-04-11T13:48:53.925Z,25.50
2018-04-11T13:50:56.832Z,25.50
2018-04-11T13:52:59.768Z,25.50
2018-04-11T13:55:02.721Z,25.70
2018-04-11T13:57:05.752Z,25.70
2018-04-11T13:59:09.545Z,26.10
2018-04-11T14:01:13.212Z,26.50
2018-04-11T14:03:16.157Z,26.40
2018-04-11T14:05:19.216Z,26.70
2018-04-11T14:07:22.915Z,27.00
2018-04-11T14:09:26.617Z,27.10
2018-04-11T14:11:30.277Z,27.20
2018-04-11T14:13:33.297Z,27.20
2018-04-11T14:15:36.274Z,27.30
2018-04-11T14:17:39.979Z,27.30
2018-04-11T14:19:43.651Z,27.30
2018-04-11T14:21:46.670Z,27.30
2018-04-11T14:23:50.466Z,27.20
2018-04-11T14:25:54.173Z,27.00
2018-04-11T14:27:57.966Z,26.90
2018-04-11T14:30:01.625Z,26.70
2018-04-11T14:32:04.548Z,26.70
2018-04-11T14:34:08.215Z,26.50
2018-04-11T14:36:12.628Z,26.20
2018-04-11T14:38:15.561Z,26.30
2018-04-11T14:40:18.468Z,26.00
2018-04-11T14:42:21.436Z,25.80
2018-04-11T14:44:24.493Z,25.60
2018-04-11T14:46:28.165Z,25.20
2018-04-11T14:48:31.094Z,25.20
2018-04-11T14:50:34.000Z,25.00
2018-04-11T14:52:36.934Z,24.80
2018-04-11T14:54:39.905Z,24.70
2018-04-11T14:56:43.572Z,24.40
2018-04-11T14:58:46.526Z,24.40
2018-04-11T15:00:49.428Z,24.30
2018-04-11T15:02:52.385Z,24.20
2018-04-11T15:04:55.288Z,24.10
2018-04-11T15:06:58.200Z,24.00
2018-04-11T15:09:01.117Z,23.80
2018-04-11T15:11:04.028Z,23.80
2018-04-11T15:13:06.971Z,23.70
2018-04-11T15:15:10.641Z,23.60
2018-04-11T15:17:13.551Z,23.50
2018-04-11T15:19:17.251Z,23.40
2018-04-11T15:21:20.929Z,23.30
2018-04-11T15:23:24.636Z,23.30
2018-04-11T15:25:28.324Z,23.20
2018-04-11T15:27:31.390Z,23.20
2018-04-11T15:29:34.280Z,23.10
2018-04-11T15:31:37.301Z,23.10
2018-04-11T15:33:40.314Z,23.00
2018-04-11T15:35:43.249Z,23.00
2018-04-11T15:37:46.169Z,22.90
2018-04-11T15:39:49.436Z,22.90
2018-04-11T15:41:52.380Z,22.80
2018-04-11T15:43:56.836Z,22.70
2018-04-11T15:46:00.785Z,22.70
2018-04-11T15:48:03.796Z,22.70
2018-04-11T15:50:06.786Z,22.70
2018-04-11T15:52:09.696Z,22.60
2018-04-11T15:54:12.642Z,22.60
2018-04-11T15:56:15.559Z,22.60
2018-04-11T15:58:19.354Z,22.50
2018-04-11T16:00:22.275Z,22.50
2018-04-11T16:02:25.184Z,22.50
2018-04-11T16:04:28.568Z,22.50
2018-04-11T16:06:31.477Z,22.50
2018-04-11T16:08:35.294Z,22.50
2018-04-11T16:10:38.990Z,22.50
2018-04-11T16:12:42.684Z,22.40
2018-04-11T16:14:46.381Z,22.40
2018-04-11T16:16:50.151Z,22.40
2018-04-11T16:18:53.089Z,22.40
2018-04-11T16:20:56.073Z,22.40
2018-04-11T16:22:58.984Z,22.30
2018-04-11T16:25:01.922Z,22.30
2018-04-11T16:27:05.729Z,22.20
2018-04-11T16:29:09.408Z,22.20
2018-04-11T16:31:13.108Z,22.20
2018-04-11T16:33:16.929Z,22.20
2018-04-11T16:35:21.035Z,22.10
2018-04-11T16:37:24.717Z,22.10
2018-04-11T16:39:28.403Z,22.10
2018-04-11T16:41:31.376Z,22.10
2018-04-11T16:43:34.292Z,22.10
2018-04-11T16:45:37.965Z,22.00
2018-04-11T16:47:40.896Z,22.00
2018-04-11T16:49:43.813Z,22.00
2018-04-11T16:51:46.715Z,22.00
2018-04-11T16:53:49.666Z,22.00
2018-04-11T16:55:52.580Z,22.00
2018-04-11T16:57:55.513Z,22.00
2018-04-11T16:59:58.448Z,21.90
2018-04-11T17:02:01.360Z,21.90
2018-04-11T17:04:05.052Z,21.90
2018-04-11T17:06:09.556Z,21.80
2018-04-11T17:08:14.100Z,21.70
2018-04-11T17:10:17.121Z,21.70
2018-04-11T17:12:20.069Z,21.80
2018-04-11T17:14:23.042Z,21.70
2018-04-11T17:16:25.957Z,21.70
2018-04-11T17:18:29.003Z,21.70
2018-04-11T17:20:44.629Z,21.70
2018-04-11T17:23:00.756Z,21.60
2018-04-11T17:25:16.331Z,21.60
2018-04-11T17:27:32.038Z,21.60
2018-04-11T17:29:46.884Z,21.50
2018-04-11T17:31:50.572Z,21.50
2018-04-11T17:33:53.680Z,21.50
2018-04-11T17:35:57.360Z,21.40
2018-04-11T17:38:00.280Z,21.40
2018-04-11T17:40:03.243Z,21.40
2018-04-11T17:42:06.906Z,21.40
2018-04-11T17:44:09.864Z,21.40
2018-04-11T17:46:12.760Z,21.40
2018-04-11T17:48:15.664Z,21.30
2018-04-11T17:50:20.116Z,21.30
2018-04-11T17:52:23.044Z,21.30
2018-04-11T17:54:25.981Z,21.30
2018-04-11T17:56:28.887Z,21.30
2018-04-11T17:58:31.850Z,21.20
2018-04-11T18:00:35.668Z,21.20
2018-04-11T18:02:38.583Z,21.20
2018-04-11T18:04:41.512Z,21.10
2018-04-11T18:06:44.408Z,21.10
2018-04-11T18:08:47.582Z,21.10
2018-04-11T18:10:51.782Z,21.10
2018-04-11T18:12:55.454Z,21.00
2018-04-11T18:14:59.909Z,21.00
2018-04-11T18:17:03.569Z,20.90
2018-04-11T18:19:06.505Z,20.90
2018-04-11T18:21:09.433Z,20.90
2018-04-11T18:23:12.439Z,20.90
2018-04-11T18:25:16.138Z,20.80
2018-04-11T18:27:19.817Z,20.80
2018-04-11T18:29:22.777Z,20.80
2018-04-11T18:31:25.724Z,20.80
2018-04-11T18:33:28.660Z,20.70
2018-04-11T18:35:31.601Z,20.70
2018-04-11T18:37:34.537Z,20.60
2018-04-11T18:39:38.242Z,20.60
2018-04-11T18:41:41.904Z,20.60
2018-04-11T18:43:44.817Z,20.60
2018-04-11T18:45:48.512Z,20.50
2018-04-11T18:47:52.920Z,20.50
2018-04-11T18:49:57.407Z,20.40
2018-04-11T18:52:00.317Z,20.40
2018-04-11T18:54:03.256Z,20.40
2018-04-11T18:56:06.184Z,20.40
2018-04-11T18:58:09.089Z,20.30
2018-04-11T19:00:12.852Z,20.30
2018-04-11T19:02:15.981Z,20.30
2018-04-11T19:04:19.997Z,20.20
2018-04-11T19:06:22.912Z,20.20
2018-04-11T19:08:25.951Z,20.20
2018-04-11T19:10:28.916Z,20.20
2018-04-11T19:12:32.123Z,20.10
2018-04-11T19:14:35.718Z,20.20
2018-04-11T19:16:39.027Z,20.10
2018-04-11T19:18:41.942Z,20.10
2018-04-11T19:20:44.885Z,20.10
2018-04-11T19:22:48.780Z,20.00
2018-04-11T19:24:52.756Z,20.00
2018-04-11T19:26:55.983Z,20.00
2018-04-11T19:28:59.002Z,20.00
2018-04-11T19:31:02.297Z,20.00
2018-04-11T19:33:05.207Z,20.00
2018-04-11T19:35:08.194Z,20.00
2018-04-11T19:37:11.114Z,20.00
2018-04-11T19:39:14.381Z,20.00
2018-04-11T19:41:18.040Z,19.90
2018-04-11T19:43:20.948Z,19.90
2018-04-11T19:45:23.881Z,19.90
2018-04-11T19:47:26.789Z,19.90
2018-04-11T19:49:29.689Z,19.90
2018-04-11T19:51:33.380Z,19.90
2018-04-11T19:53:36.337Z,19.90
2018-04-11T19:55:39.212Z,19.80
2018-04-11T19:57:42.252Z,19.80
2018-04-11T19:59:45.235Z,19.80
2018-04-11T20:01:49.037Z,19.80
2018-04-11T20:03:52.721Z,19.80
2018-04-11T20:05:57.125Z,19.70
2018-04-11T20:08:00.196Z,19.70
2018-04-11T20:10:03.121Z,19.70
2018-04-11T20:12:06.038Z,19.70
2018-04-11T20:14:08.975Z,19.70
2018-04-11T20:16:12.644Z,19.70
2018-04-11T20:18:15.556Z,19.70
2018-04-11T20:20:19.252Z,19.70
2018-04-11T20:22:22.932Z,19.60
2018-04-11T20:24:25.858Z,19.60
2018-04-11T20:26:28.764Z,19.60
2018-04-11T20:28:31.675Z,19.60
2018-04-11T20:30:36.226Z,19.50
2018-04-11T20:32:39.915Z,19.60
2018-04-11T20:34:43.608Z,19.50
2018-04-11T20:36:46.620Z,19.50
2018-04-11T20:38:50.287Z,19.50
2018-04-11T20:40:53.213Z,19.50
2018-04-11T20:42:56.116Z,19.50
2018-04-11T20:44:59.136Z,19.50
2018-04-11T20:47:02.808Z,19.50
2018-04-11T20:49:05.713Z,19.50
2018-04-11T20:51:10.156Z,19.40
2018-04-11T20:53:13.829Z,19.40
2018-04-11T20:55:18.245Z,19.40
2018-04-11T20:57:21.191Z,19.40
2018-04-11T20:59:24.094Z,19.40
2018-04-11T21:01:27.029Z,19.40
2018-04-11T21:03:30.721Z,19.30
2018-04-11T21:05:33.641Z,19.30
2018-04-11T21:07:36.678Z,19.30
2018-04-11T21:09:40.349Z,19.20
2018-04-11T21:11:44.794Z,19.20
2018-04-11T21:13:49.224Z,19.20
2018-04-11T21:15:52.194Z,19.20
2018-04-11T21:17:55.159Z,19.10
2018-04-11T21:19:58.088Z,19.10
2018-04-11T21:22:01.022Z,19.10
2018-04-11T21:24:04.023Z,19.10
2018-04-11T21:26:08.415Z,19.00
2018-04-11T21:28:11.343Z,19.00
2018-04-11T21:30:14.262Z,19.10
2018-04-11T21:32:17.287Z,19.10
2018-04-11T21:34:20.944Z,19.00
2018-04-11T21:36:23.851Z,19.00
2018-04-11T21:38:28.308Z,18.90
2018-04-11T21:40:31.203Z,18.90
2018-04-11T21:42:34.148Z,18.90
2018-04-11T21:44:37.828Z,18.90
2018-04-11T21:46:40.830Z,18.90
2018-04-11T21:48:44.516Z,18.90
2018-04-11T21:50:48.209Z,18.90
2018-04-11T21:52:51.149Z,18.90
2018-04-11T21:54:54.880Z,18.80
2018-04-11T21:56:57.793Z,18.80
2018-04-11T21:59:01.476Z,18.70
2018-04-11T22:01:05.154Z,18.70
2018-04-11T22:03:08.090Z,18.70
2018-04-11T22:05:11.029Z,18.70
2018-04-11T22:07:15.440Z,18.60
2018-04-11T22:09:18.670Z,18.60
2018-04-11T22:11:22.357Z,18.60
2018-04-11T22:13:26.163Z,18.60
2018-04-11T22:15:29.860Z,18.60
2018-04-11T22:17:33.544Z,18.50
2018-04-11T22:19:36.441Z,18.50
2018-04-11T22:21:40.148Z,18.50
2018-04-11T22:23:43.824Z,18.50
2018-04-11T22:25:46.744Z,18.50
2018-04-11T22:27:49.651Z,18.40
2018-04-11T22:29:52.587Z,18.50
2018-04-11T22:31:56.244Z,18.50
2018-04-11T22:33:59.245Z,18.40
2018-04-11T22:36:02.253Z,18.40
2018-04-11T22:38:05.915Z,18.50
2018-04-11T22:40:08.853Z,18.40
2018-04-11T22:42:11.779Z,18.50
2018-04-11T22:44:14.700Z,18.40
2018-04-11T22:46:18.498Z,18.50
2018-04-11T22:48:22.201Z,18.50
2018-04-11T22:50:25.898Z,18.50
2018-04-11T22:52:29.559Z,18.40
2018-04-11T22:54:32.464Z,18.40
2018-04-11T22:56:36.179Z,18.40
2018-04-11T22:58:39.844Z,18.30
2018-04-11T23:00:42.779Z,18.30
2018-04-11T23:02:45.706Z,18.30
2018-04-11T23:04:48.725Z,18.20
2018-04-11T23:06:52.424Z,18.20
2018-04-11T23:08:56.104Z,18.10
2018-04-11T23:10:59.025Z,18.10
2018-04-11T23:13:01.944Z,18.10
2018-04-11T23:15:04.872Z,18.10
2018-04-11T23:17:08.551Z,18.00
2018-04-11T23:19:11.457Z,18.00
2018-04-11T23:21:14.452Z,18.00
2018-04-11T23:23:17.363Z,18.00
2018-04-11T23:25:20.398Z,18.00
2018-04-11T23:27:24.059Z,18.00
2018-04-11T23:29:27.081Z,18.00
2018-04-11T23:31:30.796Z,17.90
2018-04-11T23:33:34.456Z,17.90
2018-04-11T23:35:37.390Z,17.90
2018-04-11T23:37:40.338Z,17.90
2018-04-11T23:39:43.326Z,18.00
2018-04-11T23:41:47.006Z,18.00
2018-04-11T23:43:51.424Z,17.90
2018-04-11T23:45:54.373Z,17.90
2018-04-11T23:47:57.283Z,17.90
2018-04-11T23:50:00.289Z,17.90
2018-04-11T23:52:04.001Z,17.90
2018-04-11T23:54:06.903Z,17.90
2018-04-11T23:56:09.804Z,17.90
2018-04-11T23:58:12.741Z,17.90
